sensor_id;sensor_type;location;lat;lon;timestamp;pressure;altitude;pressure_sealevel;temperature;humidity
13476;BME280;6810;63.824;20.288;2023-12-22T00:01:24;98270.69;;;-1.67;78.49
13476;BME280;6810;63.824;20.288;2023-12-22T00:04:11;98277.44;;;-1.63;78.74
13476;BME280;6810;63.824;20.288;2023-12-22T00:06:58;98275.59;;;-1.61;78.81
13476;BME280;6810;63.824;20.288;2023-12-22T00:09:45;98277.19;;;-1.58;78.24
13476;BME280;6810;63.824;20.288;2023-12-22T00:12:33;98280.66;;;-1.58;78.48
13476;BME280;6810;63.824;20.288;2023-12-22T00:15:20;98276.22;;;-1.56;77.85
13476;BME280;6810;63.824;20.288;2023-12-22T00:18:07;98276.97;;;-1.54;78.89
13476;BME280;6810;63.824;20.288;2023-12-22T00:20:54;98280.44;;;-1.53;78.81
13476;BME280;6810;63.824;20.288;2023-12-22T00:23:41;98273.47;;;-1.53;78.86
13476;BME280;6810;63.824;20.288;2023-12-22T00:26:28;98290.66;;;-1.49;79.06
13476;BME280;6810;63.824;20.288;2023-12-22T00:29:15;98293.19;;;-1.47;78.51
13476;BME280;6810;63.824;20.288;2023-12-22T00:32:02;98296.59;;;-1.45;78.23
13476;BME280;6810;63.824;20.288;2023-12-22T00:34:49;98295.56;;;-1.43;78.96
13476;BME280;6810;63.824;20.288;2023-12-22T00:37:36;98294.72;;;-1.43;79.01
13476;BME280;6810;63.824;20.288;2023-12-22T00:40:24;98302.41;;;-1.40;78.24
13476;BME280;6810;63.824;20.288;2023-12-22T00:43:11;98298.97;;;-1.41;78.24
13476;BME280;6810;63.824;20.288;2023-12-22T00:45:58;98295.28;;;-1.37;78.79
13476;BME280;6810;63.824;20.288;2023-12-22T00:48:46;98302.19;;;-1.36;78.97
13476;BME280;6810;63.824;20.288;2023-12-22T00:51:33;98300.34;;;-1.34;79.22
13476;BME280;6810;63.824;20.288;2023-12-22T00:54:20;98303.75;;;-1.32;78.74
13476;BME280;6810;63.824;20.288;2023-12-22T00:57:07;98302.81;;;-1.31;78.14
13476;BME280;6810;63.824;20.288;2023-12-22T00:59:54;98303.59;;;-1.29;78.75
13476;BME280;6810;63.824;20.288;2023-12-22T01:02:41;98312.19;;;-1.27;78.53
13476;BME280;6810;63.824;20.288;2023-12-22T01:05:08;98302.56;;;-1.26;79.16
13476;BME280;6810;63.824;20.288;2023-12-22T01:07:36;98308.59;;;-1.24;79.04
13476;BME280;6810;63.824;20.288;2023-12-22T01:10:03;98303.28;;;-1.23;78.26
13476;BME280;6810;63.824;20.288;2023-12-22T01:12:31;98266.78;;;-1.41;79.25
13476;BME280;6810;63.824;20.288;2023-12-22T01:14:58;98295.66;;;-1.27;78.86
13476;BME280;6810;63.824;20.288;2023-12-22T01:17:25;98301.38;;;-1.19;78.66
13476;BME280;6810;63.824;20.288;2023-12-22T01:19:52;98300.44;;;-1.18;79.37
13476;BME280;6810;63.824;20.288;2023-12-22T01:22:19;98302.97;;;-1.17;79.21
13476;BME280;6810;63.824;20.288;2023-12-22T01:24:46;98300.28;;;-1.15;78.57
13476;BME280;6810;63.824;20.288;2023-12-22T01:27:14;98304.56;;;-1.14;78.65
13476;BME280;6810;63.824;20.288;2023-12-22T01:29:41;98314.94;;;-1.13;79.32
13476;BME280;6810;63.824;20.288;2023-12-22T01:32:08;98305.34;;;-1.12;78.61
13476;BME280;6810;63.824;20.288;2023-12-22T01:34:35;98300.97;;;-1.12;79.28
13476;BME280;6810;63.824;20.288;2023-12-22T01:37:02;98306.13;;;-1.10;79.39
13476;BME280;6810;63.824;20.288;2023-12-22T01:39:29;98303.44;;;-1.09;79.45
13476;BME280;6810;63.824;20.288;2023-12-22T01:41:56;98306.88;;;-1.08;79.07
13476;BME280;6810;63.824;20.288;2023-12-22T01:44:23;98308.66;;;-1.09;79.24
13476;BME280;6810;63.824;20.288;2023-12-22T01:46:51;98313.75;;;-1.06;78.77
13476;BME280;6810;63.824;20.288;2023-12-22T01:49:20;98304.19;;;-1.07;78.84
13476;BME280;6810;63.824;20.288;2023-12-22T01:51:49;98308.34;;;-1.03;78.68
13476;BME280;6810;63.824;20.288;2023-12-22T01:54:16;98304.81;;;-1.02;78.77
13476;BME280;6810;63.824;20.288;2023-12-22T01:56:45;98290.53;;;-1.12;79.25
13476;BME280;6810;63.824;20.288;2023-12-22T01:59:12;98307.34;;;-1.00;79.43
13476;BME280;6810;63.824;20.288;2023-12-22T02:01:39;98300.34;;;-1.00;79.32
13476;BME280;6810;63.824;20.288;2023-12-22T02:04:08;98304.56;;;-0.97;79.56
13476;BME280;6810;63.824;20.288;2023-12-22T02:06:35;98304.56;;;-0.97;79.18
13476;BME280;6810;63.824;20.288;2023-12-22T02:09:03;98314.94;;;-0.96;79.55
13476;BME280;6810;63.824;20.288;2023-12-22T02:11:31;98308.81;;;-0.95;79.11
13476;BME280;6810;63.824;20.288;2023-12-22T02:13:58;98303.59;;;-0.95;79.09
13476;BME280;6810;63.824;20.288;2023-12-22T02:16:43;98305.28;;;-0.94;79.45
13476;BME280;6810;63.824;20.288;2023-12-22T02:19:25;98299.97;;;-0.92;78.84
13476;BME280;6810;63.824;20.288;2023-12-22T02:22:02;98306.03;;;-0.92;79.11
13476;BME280;6810;63.824;20.288;2023-12-22T02:24:35;98299.88;;;-0.91;78.89
13476;BME280;6810;63.824;20.288;2023-12-22T02:27:05;98300.81;;;-0.92;78.99
13476;BME280;6810;63.824;20.288;2023-12-22T02:29:36;98308.59;;;-0.90;79.47
13476;BME280;6810;63.824;20.288;2023-12-22T02:32:10;98305.97;;;-0.90;79.28
13476;BME280;6810;63.824;20.288;2023-12-22T02:34:41;98302.34;;;-0.88;79.67
13476;BME280;6810;63.824;20.288;2023-12-22T02:37:10;98297.97;;;-0.87;79.06
13476;BME280;6810;63.824;20.288;2023-12-22T02:39:38;98307.50;;;-0.86;79.25
13476;BME280;6810;63.824;20.288;2023-12-22T02:42:06;98303.13;;;-0.86;79.18
13476;BME280;6810;63.824;20.288;2023-12-22T02:44:34;98301.25;;;-0.84;79.58
13476;BME280;6810;63.824;20.288;2023-12-22T02:47:01;98289.59;;;-0.94;79.62
13476;BME280;6810;63.824;20.288;2023-12-22T02:49:28;98311.69;;;-0.84;79.66
13476;BME280;6810;63.824;20.288;2023-12-22T02:51:55;98304.72;;;-0.83;79.39
13476;BME280;6810;63.824;20.288;2023-12-22T02:54:22;98309.88;;;-0.82;79.40
13476;BME280;6810;63.824;20.288;2023-12-22T02:56:49;98308.94;;;-0.81;79.28
13476;BME280;6810;63.824;20.288;2023-12-22T02:59:16;98308.84;;;-0.79;79.68
13476;BME280;6810;63.824;20.288;2023-12-22T03:01:43;98300.19;;;-0.80;79.54
13476;BME280;6810;63.824;20.288;2023-12-22T03:04:10;98313.19;;;-0.78;79.86
13476;BME280;6810;63.824;20.288;2023-12-22T03:06:38;98300.94;;;-0.78;79.89
13476;BME280;6810;63.824;20.288;2023-12-22T03:09:05;98309.53;;;-0.76;79.38
13476;BME280;6810;63.824;20.288;2023-12-22T03:11:33;98315.63;;;-0.75;79.83
13476;BME280;6810;63.824;20.288;2023-12-22T03:14:00;98306.25;;;-0.79;79.88
13476;BME280;6810;63.824;20.288;2023-12-22T03:16:27;98308.53;;;-0.73;79.63
13476;BME280;6810;63.824;20.288;2023-12-22T03:18:54;98312.94;;;-0.74;79.55
13476;BME280;6810;63.824;20.288;2023-12-22T03:21:22;98311.06;;;-0.72;79.77
13476;BME280;6810;63.824;20.288;2023-12-22T03:23:49;98311.06;;;-0.72;79.45
13476;BME280;6810;63.824;20.288;2023-12-22T03:26:16;98311.06;;;-0.72;79.50
13476;BME280;6810;63.824;20.288;2023-12-22T03:28:43;98311.84;;;-0.70;79.49
13476;BME280;6810;63.824;20.288;2023-12-22T03:31:10;98312.63;;;-0.68;79.78
13476;BME280;6810;63.824;20.288;2023-12-22T03:33:37;98309.06;;;-0.67;79.55
13476;BME280;6810;63.824;20.288;2023-12-22T03:36:05;98305.00;;;-0.72;79.86
13476;BME280;6810;63.824;20.288;2023-12-22T03:38:32;98310.75;;;-0.66;79.91
13476;BME280;6810;63.824;20.288;2023-12-22T03:40:59;98308.13;;;-0.66;79.60
13476;BME280;6810;63.824;20.288;2023-12-22T03:43:26;98306.38;;;-0.65;79.81
13476;BME280;6810;63.824;20.288;2023-12-22T03:45:54;98308.91;;;-0.64;79.79
13476;BME280;6810;63.824;20.288;2023-12-22T03:48:21;98303.59;;;-0.62;79.97
13476;BME280;6810;63.824;20.288;2023-12-22T03:50:48;98300.97;;;-0.62;79.84
13476;BME280;6810;63.824;20.288;2023-12-22T03:53:15;98307.94;;;-0.61;80.06
13476;BME280;6810;63.824;20.288;2023-12-22T03:55:43;98307.06;;;-0.62;80.02
13476;BME280;6810;63.824;20.288;2023-12-22T03:58:10;98295.13;;;-0.67;80.05
13476;BME280;6810;63.824;20.288;2023-12-22T04:00:37;98313.06;;;-0.60;79.79
13476;BME280;6810;63.824;20.288;2023-12-22T04:03:04;98312.13;;;-0.59;80.06
13476;BME280;6810;63.824;20.288;2023-12-22T04:05:31;98310.31;;;-0.57;79.95
13476;BME280;6810;63.824;20.288;2023-12-22T04:07:59;98308.59;;;-0.58;79.99
13476;BME280;6810;63.824;20.288;2023-12-22T04:10:26;98310.31;;;-0.57;79.86
13476;BME280;6810;63.824;20.288;2023-12-22T04:12:53;98308.59;;;-0.58;80.11
13476;BME280;6810;63.824;20.288;2023-12-22T04:15:20;98316.28;;;-0.55;80.47
13476;BME280;6810;63.824;20.288;2023-12-22T04:17:47;98315.38;;;-0.54;79.92
13476;BME280;6810;63.824;20.288;2023-12-22T04:20:15;98312.75;;;-0.54;79.75
13476;BME280;6810;63.824;20.288;2023-12-22T04:22:42;98310.97;;;-0.53;80.15
13476;BME280;6810;63.824;20.288;2023-12-22T04:25:09;98313.56;;;-0.53;80.14
13476;BME280;6810;63.824;20.288;2023-12-22T04:27:36;98311.97;;;-0.56;80.37
13476;BME280;6810;63.824;20.288;2023-12-22T04:30:04;98289.25;;;-0.71;79.91
13476;BME280;6810;63.824;20.288;2023-12-22T04:32:31;98320.53;;;-0.52;80.03
13476;BME280;6810;63.824;20.288;2023-12-22T04:34:59;98318.72;;;-0.52;80.33
13476;BME280;6810;63.824;20.288;2023-12-22T04:37:26;98316.97;;;-0.51;79.83
13476;BME280;6810;63.824;20.288;2023-12-22T04:39:53;98322.13;;;-0.50;80.18
13476;BME280;6810;63.824;20.288;2023-12-22T04:42:20;98323.78;;;-0.49;79.88
13476;BME280;6810;63.824;20.288;2023-12-22T04:44:47;98313.56;;;-0.53;80.46
13476;BME280;6810;63.824;20.288;2023-12-22T04:47:15;98317.66;;;-0.48;80.20
13476;BME280;6810;63.824;20.288;2023-12-22T04:49:42;98317.66;;;-0.48;80.63
13476;BME280;6810;63.824;20.288;2023-12-22T04:52:10;98321.09;;;-0.47;80.43
13476;BME280;6810;63.824;20.288;2023-12-22T04:54:38;98298.28;;;-0.61;80.27
13476;BME280;6810;63.824;20.288;2023-12-22T04:57:05;98323.63;;;-0.46;80.20
13476;BME280;6810;63.824;20.288;2023-12-22T04:59:32;98311.97;;;-0.56;80.24
13476;BME280;6810;63.824;20.288;2023-12-22T05:01:59;98325.44;;;-0.46;80.01
13476;BME280;6810;63.824;20.288;2023-12-22T05:04:27;98335.88;;;-0.46;79.90
13476;BME280;6810;63.824;20.288;2023-12-22T05:06:54;98335.72;;;-0.43;80.34
13476;BME280;6810;63.824;20.288;2023-12-22T05:09:22;98339.16;;;-0.43;80.34
13476;BME280;6810;63.824;20.288;2023-12-22T05:11:51;98342.63;;;-0.42;80.33
13476;BME280;6810;63.824;20.288;2023-12-22T05:14:18;98343.50;;;-0.42;80.62
13476;BME280;6810;63.824;20.288;2023-12-22T05:16:45;98343.41;;;-0.40;80.38
13476;BME280;6810;63.824;20.288;2023-12-22T05:19:13;98347.00;;;-0.43;80.34
13476;BME280;6810;63.824;20.288;2023-12-22T05:21:40;98349.47;;;-0.40;80.26
13476;BME280;6810;63.824;20.288;2023-12-22T05:24:07;98352.94;;;-0.39;80.45
13476;BME280;6810;63.824;20.288;2023-12-22T05:26:34;98354.63;;;-0.38;80.33
13476;BME280;6810;63.824;20.288;2023-12-22T05:29:01;98362.38;;;-0.37;80.56
13476;BME280;6810;63.824;20.288;2023-12-22T05:31:28;98366.72;;;-0.36;80.55
13476;BME280;6810;63.824;20.288;2023-12-22T05:33:57;98354.88;;;-0.43;80.33
13476;BME280;6810;63.824;20.288;2023-12-22T05:36:25;98354.88;;;-0.43;80.53
13476;BME280;6810;63.824;20.288;2023-12-22T05:38:52;98365.69;;;-0.33;80.38
13476;BME280;6810;63.824;20.288;2023-12-22T05:41:19;98365.69;;;-0.33;80.37
13476;BME280;6810;63.824;20.288;2023-12-22T05:43:46;98358.88;;;-0.36;80.27
13476;BME280;6810;63.824;20.288;2023-12-22T05:46:13;98369.09;;;-0.31;80.57
13476;BME280;6810;63.824;20.288;2023-12-22T05:48:40;98375.31;;;-0.34;80.70
13476;BME280;6810;63.824;20.288;2023-12-22T05:51:08;98371.72;;;-0.31;80.56
13476;BME280;6810;63.824;20.288;2023-12-22T05:53:40;98373.38;;;-0.30;80.29
13476;BME280;6810;63.824;20.288;2023-12-22T05:56:18;98383.78;;;-0.29;80.48
13476;BME280;6810;63.824;20.288;2023-12-22T05:58:49;98383.78;;;-0.29;80.55
13476;BME280;6810;63.824;20.288;2023-12-22T06:01:19;98383.69;;;-0.27;80.70
13476;BME280;6810;63.824;20.288;2023-12-22T06:03:46;98384.53;;;-0.27;80.57
13476;BME280;6810;63.824;20.288;2023-12-22T06:06:13;98383.59;;;-0.26;80.54
13476;BME280;6810;63.824;20.288;2023-12-22T06:08:41;98382.78;;;-0.26;80.55
13476;BME280;6810;63.824;20.288;2023-12-22T06:11:08;98386.31;;;-0.27;80.59
13476;BME280;6810;63.824;20.288;2023-12-22T06:13:37;98396.63;;;-0.24;80.77
13476;BME280;6810;63.824;20.288;2023-12-22T06:16:04;98381.06;;;-0.27;80.57
13476;BME280;6810;63.824;20.288;2023-12-22T06:18:32;98389.63;;;-0.24;80.53
13476;BME280;6810;63.824;20.288;2023-12-22T06:20:59;98397.47;;;-0.24;81.06
13476;BME280;6810;63.824;20.288;2023-12-22T06:23:26;98408.72;;;-0.22;80.57
13476;BME280;6810;63.824;20.288;2023-12-22T06:25:53;98399.22;;;-0.24;80.43
13476;BME280;6810;63.824;20.288;2023-12-22T06:28:20;98404.31;;;-0.21;80.90
13476;BME280;6810;63.824;20.288;2023-12-22T06:30:47;98403.41;;;-0.20;80.77
13476;BME280;6810;63.824;20.288;2023-12-22T06:33:14;98405.94;;;-0.19;80.67
13476;BME280;6810;63.824;20.288;2023-12-22T06:35:41;98409.44;;;-0.20;80.20
13476;BME280;6810;63.824;20.288;2023-12-22T06:38:09;98419.03;;;-0.19;80.73
13476;BME280;6810;63.824;20.288;2023-12-22T06:40:37;98414.59;;;-0.18;80.79
13476;BME280;6810;63.824;20.288;2023-12-22T06:43:05;98412.75;;;-0.16;80.67
13476;BME280;6810;63.824;20.288;2023-12-22T06:45:32;98411.81;;;-0.15;80.83
13476;BME280;6810;63.824;20.288;2023-12-22T06:47:59;98416.97;;;-0.14;80.61
13476;BME280;6810;63.824;20.288;2023-12-22T06:50:27;98419.59;;;-0.14;80.75
13476;BME280;6810;63.824;20.288;2023-12-22T06:52:54;98420.47;;;-0.13;80.78
13476;BME280;6810;63.824;20.288;2023-12-22T06:55:22;98415.13;;;-0.12;80.84
13476;BME280;6810;63.824;20.288;2023-12-22T06:57:49;98423.78;;;-0.10;80.80
13476;BME280;6810;63.824;20.288;2023-12-22T07:00:17;98416.81;;;-0.11;80.86
13476;BME280;6810;63.824;20.288;2023-12-22T07:02:44;98414.97;;;-0.09;80.94
13476;BME280;6810;63.824;20.288;2023-12-22T07:07:39;98418.63;;;-0.11;80.85
13476;BME280;6810;63.824;20.288;2023-12-22T07:10:06;98428.84;;;-0.07;80.96
13476;BME280;6810;63.824;20.288;2023-12-22T07:12:33;98432.28;;;-0.06;80.88
13476;BME280;6810;63.824;20.288;2023-12-22T07:15:00;98433.13;;;-0.06;81.17
13476;BME280;6810;63.824;20.288;2023-12-22T07:17:27;98439.16;;;-0.04;80.84
13476;BME280;6810;63.824;20.288;2023-12-22T07:19:54;98440.84;;;-0.03;80.96
13476;BME280;6810;63.824;20.288;2023-12-22T07:22:25;98442.59;;;-0.03;80.94
13476;BME280;6810;63.824;20.288;2023-12-22T07:24:52;98447.75;;;-0.02;80.83
13476;BME280;6810;63.824;20.288;2023-12-22T07:27:19;98451.22;;;-0.01;81.08
13476;BME280;6810;63.824;20.288;2023-12-22T07:29:47;98445.28;;;-0.05;81.06
13476;BME280;6810;63.824;20.288;2023-12-22T07:32:14;98451.22;;;-0.01;81.03
13476;BME280;6810;63.824;20.288;2023-12-22T07:34:41;98451.06;;;0.02;80.94
13476;BME280;6810;63.824;20.288;2023-12-22T07:37:11;98453.69;;;0.02;81.15
13476;BME280;6810;63.824;20.288;2023-12-22T07:39:38;98445.09;;;0.00;80.79
13476;BME280;6810;63.824;20.288;2023-12-22T07:42:05;98457.06;;;0.04;81.12
13476;BME280;6810;63.824;20.288;2023-12-22T07:44:33;98459.69;;;0.04;80.73
13476;BME280;6810;63.824;20.288;2023-12-22T07:47:01;98462.22;;;0.06;80.93
13476;BME280;6810;63.824;20.288;2023-12-22T07:49:29;98468.31;;;0.06;80.92
13476;BME280;6810;63.824;20.288;2023-12-22T07:51:59;98459.78;;;0.03;81.38
13476;BME280;6810;63.824;20.288;2023-12-22T07:54:28;98470.84;;;0.08;81.08
13476;BME280;6810;63.824;20.288;2023-12-22T07:56:55;98458.84;;;0.03;81.87
13476;BME280;6810;63.824;20.288;2023-12-22T07:59:22;98462.38;;;0.03;80.98
13476;BME280;6810;63.824;20.288;2023-12-22T08:01:57;98468.06;;;0.11;81.11
13476;BME280;6810;63.824;20.288;2023-12-22T08:04:25;98475.00;;;0.12;81.11
13476;BME280;6810;63.824;20.288;2023-12-22T08:06:52;98486.31;;;0.12;81.05
13476;BME280;6810;63.824;20.288;2023-12-22T08:09:19;98477.53;;;0.13;81.19
13476;BME280;6810;63.824;20.288;2023-12-22T08:11:46;98474.91;;;0.13;81.17
13476;BME280;6810;63.824;20.288;2023-12-22T08:14:14;98482.69;;;0.15;81.13
13476;BME280;6810;63.824;20.288;2023-12-22T08:16:41;98482.69;;;0.15;80.81
13476;BME280;6810;63.824;20.288;2023-12-22T08:19:10;98476.69;;;0.13;81.33
13476;BME280;6810;63.824;20.288;2023-12-22T08:21:37;98482.53;;;0.18;81.07
13476;BME280;6810;63.824;20.288;2023-12-22T08:24:12;98492.06;;;0.19;81.38
13476;BME280;6810;63.824;20.288;2023-12-22T08:26:49;98478.97;;;0.19;81.01
13476;BME280;6810;63.824;20.288;2023-12-22T08:29:17;98485.91;;;0.20;81.21
13476;BME280;6810;63.824;20.288;2023-12-22T08:31:46;98487.59;;;0.21;80.88
13476;BME280;6810;63.824;20.288;2023-12-22T08:34:13;98489.28;;;0.22;81.34
13476;BME280;6810;63.824;20.288;2023-12-22T08:36:40;98498.00;;;0.22;81.26
13476;BME280;6810;63.824;20.288;2023-12-22T08:39:07;98500.63;;;0.22;81.34
13476;BME280;6810;63.824;20.288;2023-12-22T08:41:35;98504.84;;;0.25;81.36
13476;BME280;6810;63.824;20.288;2023-12-22T08:44:06;98466.84;;;0.00;81.22
13476;BME280;6810;63.824;20.288;2023-12-22T08:46:34;98517.25;;;0.21;81.24
13476;BME280;6810;63.824;20.288;2023-12-22T08:49:02;98523.41;;;0.20;80.97
13476;BME280;6810;63.824;20.288;2023-12-22T08:51:30;98526.09;;;0.19;81.17
13476;BME280;6810;63.824;20.288;2023-12-22T08:53:58;98527.13;;;0.16;81.31
13476;BME280;6810;63.824;20.288;2023-12-22T08:56:26;98533.38;;;0.14;81.18
13476;BME280;6810;63.824;20.288;2023-12-22T08:58:54;98516.28;;;0.07;81.49
13476;BME280;6810;63.824;20.288;2023-12-22T09:01:28;98536.22;;;0.09;81.03
13476;BME280;6810;63.824;20.288;2023-12-22T09:03:55;98524.97;;;0.07;81.02
13476;BME280;6810;63.824;20.288;2023-12-22T09:06:24;98523.66;;;-0.02;80.95
13476;BME280;6810;63.824;20.288;2023-12-22T09:08:52;98528.84;;;0.00;80.95
13476;BME280;6810;63.824;20.288;2023-12-22T09:11:20;98522.84;;;-0.02;80.96
13476;BME280;6810;63.824;20.288;2023-12-22T09:13:48;98521.44;;;-0.09;80.42
13476;BME280;6810;63.824;20.288;2023-12-22T09:16:21;98533.63;;;-0.08;80.82
13476;BME280;6810;63.824;20.288;2023-12-22T09:18:49;98525.06;;;-0.12;81.28
13476;BME280;6810;63.824;20.288;2023-12-22T09:21:17;98528.78;;;-0.16;80.68
13476;BME280;6810;63.824;20.288;2023-12-22T09:23:45;98527.91;;;-0.16;80.72
13476;BME280;6810;63.824;20.288;2023-12-22T09:26:13;98528.06;;;-0.19;80.84
13476;BME280;6810;63.824;20.288;2023-12-22T09:28:41;98493.59;;;-0.44;80.64
13476;BME280;6810;63.824;20.288;2023-12-22T09:31:09;98525.75;;;-0.25;79.99
13476;BME280;6810;63.824;20.288;2023-12-22T09:33:36;98531.16;;;-0.28;80.59
13476;BME280;6810;63.824;20.288;2023-12-22T09:36:04;98528.69;;;-0.31;80.45
13476;BME280;6810;63.824;20.288;2023-12-22T09:38:31;98513.53;;;-0.42;80.47
13476;BME280;6810;63.824;20.288;2023-12-22T09:40:59;98532.50;;;-0.38;80.55
13476;BME280;6810;63.824;20.288;2023-12-22T09:43:27;98534.38;;;-0.40;80.58
13476;BME280;6810;63.824;20.288;2023-12-22T09:45:55;98535.44;;;-0.44;80.42
13476;BME280;6810;63.824;20.288;2023-12-22T09:48:23;98522.81;;;-0.53;80.58
13476;BME280;6810;63.824;20.288;2023-12-22T09:50:54;98526.22;;;-0.51;80.43
13476;BME280;6810;63.824;20.288;2023-12-22T09:53:24;98536.66;;;-0.51;80.40
13476;BME280;6810;63.824;20.288;2023-12-22T09:55:53;98524.28;;;-0.65;80.27
13476;BME280;6810;63.824;20.288;2023-12-22T09:58:21;98543.97;;;-0.58;80.15
13476;BME280;6810;63.824;20.288;2023-12-22T10:00:49;98540.59;;;-0.60;80.27
13476;BME280;6810;63.824;20.288;2023-12-22T10:03:19;98535.03;;;-0.71;80.25
13476;BME280;6810;63.824;20.288;2023-12-22T10:05:47;98538.63;;;-0.73;80.41
13476;BME280;6810;63.824;20.288;2023-12-22T10:08:15;98531.63;;;-0.73;80.09
13476;BME280;6810;63.824;20.288;2023-12-22T10:10:44;98542.88;;;-0.71;80.53
13476;BME280;6810;63.824;20.288;2023-12-22T10:13:14;98549.94;;;-0.73;80.56
13476;BME280;6810;63.824;20.288;2023-12-22T10:15:43;98547.47;;;-0.76;80.33
13476;BME280;6810;63.824;20.288;2023-12-22T10:18:10;98539.13;;;-0.84;79.83
13476;BME280;6810;63.824;20.288;2023-12-22T10:20:38;98552.06;;;-0.81;79.87
13476;BME280;6810;63.824;20.288;2023-12-22T10:23:05;98547.84;;;-0.83;79.81
13476;BME280;6810;63.824;20.288;2023-12-22T10:25:33;98540.50;;;-0.94;80.06
13476;BME280;6810;63.824;20.288;2023-12-22T10:28:00;98547.13;;;-0.87;80.15
13476;BME280;6810;63.824;20.288;2023-12-22T10:30:28;98546.44;;;-0.90;80.64
13476;BME280;6810;63.824;20.288;2023-12-22T10:32:55;98520.53;;;-1.13;80.14
13476;BME280;6810;63.824;20.288;2023-12-22T10:35:23;98535.06;;;-1.08;80.16
13476;BME280;6810;63.824;20.288;2023-12-22T10:37:50;98568.47;;;-0.96;79.87
13476;BME280;6810;63.824;20.288;2023-12-22T10:40:21;98559.31;;;-1.04;80.23
13476;BME280;6810;63.824;20.288;2023-12-22T10:42:50;98539.66;;;-1.13;80.30
13476;BME280;6810;63.824;20.288;2023-12-22T10:45:18;98530.69;;;-1.26;79.87
13476;BME280;6810;63.824;20.288;2023-12-22T10:47:48;98559.38;;;-1.06;80.31
13476;BME280;6810;63.824;20.288;2023-12-22T10:50:19;98561.19;;;-1.08;79.52
13476;BME280;6810;63.824;20.288;2023-12-22T10:52:50;98560.41;;;-1.10;80.09
13476;BME280;6810;63.824;20.288;2023-12-22T10:55:20;98561.41;;;-1.12;80.29
13476;BME280;6810;63.824;20.288;2023-12-22T10:57:48;98567.56;;;-1.13;79.58
13476;BME280;6810;63.824;20.288;2023-12-22T11:00:16;98561.56;;;-1.15;79.45
13476;BME280;6810;63.824;20.288;2023-12-22T11:02:47;98574.69;;;-1.17;79.50
13476;BME280;6810;63.824;20.288;2023-12-22T11:05:17;98580.06;;;-1.20;80.01
13476;BME280;6810;63.824;20.288;2023-12-22T11:07:49;98561.63;;;-1.35;79.76
13476;BME280;6810;63.824;20.288;2023-12-22T11:10:21;98578.50;;;-1.24;79.36
13476;BME280;6810;63.824;20.288;2023-12-22T11:12:49;98576.78;;;-1.25;80.19
13476;BME280;6810;63.824;20.288;2023-12-22T11:15:18;98569.16;;;-1.29;79.64
13476;BME280;6810;63.824;20.288;2023-12-22T11:17:48;98577.94;;;-1.30;79.31
13476;BME280;6810;63.824;20.288;2023-12-22T11:20:17;98579.75;;;-1.32;80.05
13476;BME280;6810;63.824;20.288;2023-12-22T11:22:45;98591.22;;;-1.35;79.52
13476;BME280;6810;63.824;20.288;2023-12-22T11:25:14;98550.53;;;-1.59;80.00
13476;BME280;6810;63.824;20.288;2023-12-22T11:27:44;98587.00;;;-1.39;79.46
13476;BME280;6810;63.824;20.288;2023-12-22T11:30:14;98596.69;;;-1.41;79.15
13476;BME280;6810;63.824;20.288;2023-12-22T11:32:41;98598.53;;;-1.43;79.76
13476;BME280;6810;63.824;20.288;2023-12-22T11:35:09;98589.91;;;-1.45;79.17
13476;BME280;6810;63.824;20.288;2023-12-22T11:37:38;98604.81;;;-1.47;79.22
13476;BME280;6810;63.824;20.288;2023-12-22T11:40:06;98602.34;;;-1.50;79.14
13476;BME280;6810;63.824;20.288;2023-12-22T11:42:38;98588.69;;;-1.56;79.39
13476;BME280;6810;63.824;20.288;2023-12-22T11:45:13;98607.63;;;-1.51;79.87
13476;BME280;6810;63.824;20.288;2023-12-22T11:47:42;98596.38;;;-1.53;79.26
13476;BME280;6810;63.824;20.288;2023-12-22T11:50:10;98617.28;;;-1.53;79.06
13476;BME280;6810;63.824;20.288;2023-12-22T11:52:37;98618.28;;;-1.56;79.44
13476;BME280;6810;63.824;20.288;2023-12-22T11:55:06;98619.16;;;-1.57;79.07
13476;BME280;6810;63.824;20.288;2023-12-22T11:57:35;98610.56;;;-1.59;79.34
13476;BME280;6810;63.824;20.288;2023-12-22T12:00:19;98613.25;;;-1.60;79.88
13476;BME280;6810;63.824;20.288;2023-12-22T12:02:58;98614.16;;;-1.61;79.24
13476;BME280;6810;63.824;20.288;2023-12-22T12:05:25;98579.66;;;-1.88;79.39
13476;BME280;6810;63.824;20.288;2023-12-22T12:07:52;98614.34;;;-1.66;79.58
13476;BME280;6810;63.824;20.288;2023-12-22T12:13:06;98618.00;;;-1.70;79.74
13476;BME280;6810;63.824;20.288;2023-12-22T12:15:34;98619.84;;;-1.72;79.83
13476;BME280;6810;63.824;20.288;2023-12-22T12:18:02;98625.97;;;-1.73;79.12
13476;BME280;6810;63.824;20.288;2023-12-22T12:20:30;98619.09;;;-1.76;79.37
13476;BME280;6810;63.824;20.288;2023-12-22T12:22:57;98623.56;;;-1.77;79.31
13476;BME280;6810;63.824;20.288;2023-12-22T12:25:29;98616.69;;;-1.80;79.00
13476;BME280;6810;63.824;20.288;2023-12-22T12:28:06;98608.94;;;-1.82;79.89
13476;BME280;6810;63.824;20.288;2023-12-22T12:30:35;98625.56;;;-1.84;79.09
13476;BME280;6810;63.824;20.288;2023-12-22T12:33:10;98627.41;;;-1.86;79.54
13476;BME280;6810;63.824;20.288;2023-12-22T12:35:38;98629.25;;;-1.88;79.94
13476;BME280;6810;63.824;20.288;2023-12-22T12:38:11;98614.47;;;-1.89;78.89
13476;BME280;6810;63.824;20.288;2023-12-22T12:40:40;98616.50;;;-1.96;79.60
13476;BME280;6810;63.824;20.288;2023-12-22T12:43:08;98613.78;;;-1.93;79.69
13476;BME280;6810;63.824;20.288;2023-12-22T12:45:35;98616.50;;;-1.96;79.15
13476;BME280;6810;63.824;20.288;2023-12-22T12:48:03;98604.44;;;-1.98;79.09
13476;BME280;6810;63.824;20.288;2023-12-22T12:50:33;98604.44;;;-1.98;79.85
13476;BME280;6810;63.824;20.288;2023-12-22T12:53:02;98607.16;;;-2.01;79.18
13476;BME280;6810;63.824;20.288;2023-12-22T12:55:29;98585.94;;;-2.14;79.79
13476;BME280;6810;63.824;20.288;2023-12-22T12:57:56;98611.59;;;-2.03;79.45
13476;BME280;6810;63.824;20.288;2023-12-22T13:00:31;98576.97;;;-2.27;79.17
13476;BME280;6810;63.824;20.288;2023-12-22T13:03:00;98571.81;;;-2.28;79.53
13476;BME280;6810;63.824;20.288;2023-12-22T13:05:30;98606.56;;;-2.08;79.79
13476;BME280;6810;63.824;20.288;2023-12-22T13:08:10;98617.06;;;-2.09;79.54
13476;BME280;6810;63.824;20.288;2023-12-22T13:10:40;98613.63;;;-2.10;78.78
13476;BME280;6810;63.824;20.288;2023-12-22T13:13:08;98613.69;;;-2.11;79.81
13476;BME280;6810;63.824;20.288;2023-12-22T13:15:40;98632.03;;;-2.13;79.05
13476;BME280;6810;63.824;20.288;2023-12-22T13:18:07;98621.66;;;-2.14;78.90
13476;BME280;6810;63.824;20.288;2023-12-22T13:20:35;98632.22;;;-2.17;79.21